Time;durP1;ratioP1;P1;durP2;ratioP2;P2;SDS_P1;SDS_P2;PMS_P1;PMS_P2;Temp;Humidity;BMP_temperature;BMP_pressure;BME280_temperature;BME280_humidity;BME280_pressure;Samples;Min_cycle;Max_cycle;Signal;HPM_P1;HPM_P2
2021/08/22 00:01:07;;;;;;;13.40;4.68;;;;;;;12.64;76.69;100945.19;5047481;28;20032;-69
2021/08/22 00:03:33;;;;;;;8.82;4.22;;;;;;;12.64;76.71;100942.56;5047118;28;20478;-69
2021/08/22 00:05:58;;;;;;;9.75;4.60;;;;;;;12.66;76.68;100943.44;5047503;28;20052;-69
2021/08/22 00:08:23;;;;;;;10.50;4.50;;;;;;;12.68;76.58;100946.91;5046953;28;20441;-70
2021/08/22 00:10:49;;;;;;;13.82;5.82;;;;;;;12.67;76.77;100946.91;5047082;28;20461;-69
2021/08/22 00:13:14;;;;;;;14.18;5.45;;;;;;;12.66;76.70;100947.78;5047177;28;20077;-70
2021/08/22 00:15:40;;;;;;;10.90;6.05;;;;;;;12.62;76.67;100949.56;5047114;28;20025;-69
2021/08/22 00:18:05;;;;;;;11.60;4.45;;;;;;;12.60;76.88;100939.13;5046684;28;20025;-69
2021/08/22 00:20:30;;;;;;;8.13;4.25;;;;;;;12.58;76.97;100940.03;5046576;28;20112;-69
2021/08/22 00:22:56;;;;;;;8.68;4.07;;;;;;;12.61;77.10;100943.47;5046823;28;20073;-69
2021/08/22 00:25:21;;;;;;;11.38;4.45;;;;;;;12.60;77.06;100938.28;5046886;28;20026;-69
2021/08/22 00:27:47;;;;;;;8.73;4.28;;;;;;;12.61;77.05;100940.88;5047121;28;20032;-69
2021/08/22 00:30:12;;;;;;;10.50;4.13;;;;;;;12.64;77.10;100942.56;5046916;28;20559;-70
2021/08/22 00:32:37;;;;;;;10.38;3.53;;;;;;;12.63;77.15;100939.13;5046899;28;20048;-69
2021/08/22 00:35:03;;;;;;;13.77;3.63;;;;;;;12.66;77.09;100937.34;5046730;28;20028;-69
2021/08/22 00:37:29;;;;;;;7.13;3.63;;;;;;;12.64;76.91;100939.97;5046668;28;20029;-69
2021/08/22 00:39:58;;;;;;;12.10;3.90;;;;;;;12.50;77.06;100922.72;5044394;28;20079;-70
2021/08/22 00:42:25;;;;;;;9.98;4.40;;;;;;;12.62;77.10;100947.78;5046339;28;20053;-69
2021/08/22 00:44:51;;;;;;;9.93;3.42;;;;;;;12.62;77.18;100946.97;5046540;28;20053;-69
2021/08/22 00:47:16;;;;;;;12.88;4.15;;;;;;;12.58;77.07;100940.03;5046766;28;20034;-69
2021/08/22 00:49:42;;;;;;;14.38;4.10;;;;;;;12.59;77.13;100936.53;5046468;28;20040;-69
2021/08/22 00:52:07;;;;;;;11.45;3.88;;;;;;;12.60;77.14;100939.13;5046240;28;20025;-70
2021/08/22 00:54:35;;;;;;;8.95;4.05;;;;;;;12.57;77.32;100939.16;5046535;28;20032;-69
2021/08/22 00:57:00;;;;;;;8.68;4.15;;;;;;;12.60;77.30;100943.50;5046286;28;20025;-69
2021/08/22 00:59:25;;;;;;;7.57;4.10;;;;;;;12.62;77.17;100946.97;5045103;28;20014;-69
2021/08/22 01:01:57;;;;;;;13.05;4.82;;;;;;;12.62;77.32;100949.56;5045126;28;20018;-69
2021/08/22 01:04:30;;;;;;;9.75;5.03;;;;;;;12.58;77.08;100947.84;5046291;28;20330;-69
2021/08/22 01:07:09;;;;;;;13.50;4.47;;;;;;;12.52;77.01;100947.00;5044928;28;20040;-69
2021/08/22 01:09:41;;;;;;;12.88;5.22;;;;;;;12.46;77.14;100946.22;5045735;28;20386;-69
2021/08/22 01:12:16;;;;;;;13.00;5.35;;;;;;;12.42;77.26;100945.34;5045868;28;20085;-69
2021/08/22 01:14:53;;;;;;;12.07;5.05;;;;;;;12.36;77.09;100951.44;5044792;28;20491;-69
2021/08/22 01:17:21;;;;;;;11.52;5.00;;;;;;;12.32;77.41;100946.28;5045974;28;20025;-69
2021/08/22 01:20:31;;;;;;;10.45;5.07;;;;;;;12.26;77.07;100942.88;5045957;28;20049;-69
2021/08/22 01:22:57;;;;;;;13.05;5.55;;;;;;;12.26;77.52;100952.41;5038010;28;20037;-70
2021/08/22 01:25:23;;;;;;;9.90;4.63;;;;;;;12.24;77.65;100952.41;5045933;28;20047;-70
2021/08/22 01:27:50;;;;;;;18.48;5.85;;;;;;;12.24;77.81;100951.53;5045430;28;20021;-69
2021/08/22 01:30:18;;;;;;;10.80;5.40;;;;;;;12.23;77.73;100945.50;5044530;28;20079;-69
2021/08/22 01:32:49;;;;;;;12.98;5.80;;;;;;;12.20;77.68;100955.06;5044653;28;20025;-69
2021/08/22 01:35:19;;;;;;;11.53;5.37;;;;;;;12.17;77.82;100955.06;5043924;28;20052;-69
2021/08/22 01:37:46;;;;;;;7.55;3.72;;;;;;;12.11;77.79;100945.53;5044823;28;20250;-69
2021/08/22 01:40:15;;;;;;;7.72;4.22;;;;;;;12.10;77.94;100949.91;5044817;28;20037;-69
2021/08/22 01:42:42;;;;;;;6.85;4.15;;;;;;;12.12;78.18;100945.53;5044506;28;20029;-69
2021/08/22 01:45:10;;;;;;;10.00;4.30;;;;;;;12.14;78.32;100951.59;5045071;28;20105;-69
2021/08/22 01:47:37;;;;;;;11.20;4.55;;;;;;;12.16;78.31;100948.16;5044624;28;20450;-69
2021/08/22 01:50:05;;;;;;;9.20;4.47;;;;;;;12.14;78.24;100936.00;5044774;28;20018;-69
2021/08/22 01:52:34;;;;;;;8.57;3.78;;;;;;;12.13;78.37;100936.88;5043786;28;20253;-69
2021/08/22 01:55:07;;;;;;;13.90;4.40;;;;;;;12.15;78.48;100944.66;5045039;28;20021;-69
2021/08/22 01:57:35;;;;;;;11.18;4.60;;;;;;;12.10;78.37;100938.63;5045023;28;20049;-70
2021/08/22 02:00:01;;;;;;;11.25;5.13;;;;;;;12.12;78.55;100942.09;5044030;28;20044;-70
2021/08/22 02:02:26;;;;;;;8.75;5.22;;;;;;;12.06;78.46;100944.69;5045248;28;20025;-70
2021/08/22 02:04:59;;;;;;;12.38;4.93;;;;;;;11.99;78.50;100936.94;5045216;28;20021;-70
2021/08/22 02:07:29;;;;;;;7.53;4.18;;;;;;;11.88;78.75;100944.81;5045220;28;20039;-69
2021/08/22 02:10:05;;;;;;;10.43;5.10;;;;;;;11.84;78.97;100942.19;5044763;28;20075;-69
2021/08/22 02:12:32;;;;;;;6.43;4.53;;;;;;;11.79;79.13;100944.81;5045072;28;20033;-69
2021/08/22 02:15:06;;;;;;;7.03;4.50;;;;;;;11.76;79.11;100939.63;5044770;28;20211;-69
2021/08/22 02:17:36;;;;;;;11.32;4.28;;;;;;;11.77;79.25;100944.00;5044890;28;20060;-69
2021/08/22 02:20:04;;;;;;;8.10;5.15;;;;;;;11.78;79.39;100949.19;5044912;28;20018;-69
2021/08/22 02:22:32;;;;;;;10.52;4.72;;;;;;;11.80;79.28;100945.69;5043352;28;20041;-70
2021/08/22 02:24:59;;;;;;;10.77;4.57;;;;;;;11.75;79.24;100931.00;5044504;28;20030;-70
2021/08/22 02:27:28;;;;;;;6.63;3.95;;;;;;;11.80;79.22;100941.38;5044695;28;20041;-70
2021/08/22 02:29:54;;;;;;;11.07;4.55;;;;;;;11.83;79.22;100943.09;5044541;28;20049;-69
2021/08/22 02:32:20;;;;;;;13.63;4.10;;;;;;;11.81;79.28;100932.69;5044572;28;20025;-69
2021/08/22 02:34:45;;;;;;;6.80;4.53;;;;;;;11.85;79.19;100938.75;5043285;28;20022;-69
2021/08/22 02:37:10;;;;;;;14.85;4.70;;;;;;;11.84;79.24;100937.88;5044583;28;20025;-70
2021/08/22 02:39:36;;;;;;;8.32;4.13;;;;;;;11.84;79.39;100942.19;5044403;28;20076;-69
2021/08/22 02:42:05;;;;;;;11.75;4.65;;;;;;;11.84;79.40;100944.78;5044279;28;20021;-70
2021/08/22 02:44:31;;;;;;;10.35;4.78;;;;;;;11.82;79.16;100937.00;5042866;28;20075;-70
2021/08/22 02:46:56;;;;;;;11.75;4.38;;;;;;;11.82;79.18;100943.97;5043596;28;20108;-70
2021/08/22 02:49:22;;;;;;;10.73;3.90;;;;;;;11.81;79.27;100937.88;5044123;28;20025;-70
2021/08/22 02:51:47;;;;;;;8.77;4.28;;;;;;;11.82;79.32;100943.97;5044272;28;20025;-70
2021/08/22 02:54:13;;;;;;;7.78;3.90;;;;;;;11.81;79.15;100940.50;5044237;28;20052;-70
2021/08/22 02:56:38;;;;;;;7.10;3.83;;;;;;;11.81;79.12;100929.22;5044042;28;20055;-70
2021/08/22 02:59:03;;;;;;;7.68;4.18;;;;;;;11.80;78.98;100938.78;5044231;28;20241;-70
2021/08/22 03:01:29;;;;;;;11.68;3.63;;;;;;;11.79;79.17;100939.63;5043830;28;20030;-70
2021/08/22 03:03:54;;;;;;;8.15;4.53;;;;;;;11.78;79.05;100943.97;5042694;28;20377;-70
2021/08/22 03:06:19;;;;;;;8.63;4.72;;;;;;;11.74;78.82;100938.81;5044467;28;20036;-70
2021/08/22 03:08:45;;;;;;;8.93;4.35;;;;;;;11.77;78.94;100941.38;5043820;28;20041;-69
2021/08/22 03:11:10;;;;;;;13.13;4.68;;;;;;;11.74;78.88;100946.59;5044034;28;20071;-69
2021/08/22 03:13:36;;;;;;;8.70;4.53;;;;;;;11.66;78.76;100933.63;5043939;28;20406;-70
2021/08/22 03:16:01;;;;;;;11.15;4.03;;;;;;;11.68;78.89;100938.84;5043883;28;20374;-69
2021/08/22 03:18:27;;;;;;;10.95;4.78;;;;;;;11.63;78.94;100941.44;5043680;28;20037;-69
2021/08/22 03:20:52;;;;;;;10.63;4.03;;;;;;;11.56;78.98;100932.81;5043766;28;20029;-69
2021/08/22 03:23:18;;;;;;;8.60;4.22;;;;;;;11.58;79.21;100935.41;5043809;28;20487;-71
2021/08/22 03:25:43;;;;;;;11.80;3.58;;;;;;;11.56;79.24;100940.59;5043360;28;20025;-70
2021/08/22 03:28:08;;;;;;;8.82;3.88;;;;;;;11.57;79.34;100944.94;5042577;28;20603;-69
2021/08/22 03:30:34;;;;;;;10.13;3.55;;;;;;;11.56;79.32;100943.22;5041160;28;20021;-69
2021/08/22 03:32:59;;;;;;;11.05;3.80;;;;;;;11.59;79.30;100947.53;5043527;28;20025;-71
2021/08/22 03:35:25;;;;;;;11.07;3.78;;;;;;;11.60;79.22;100944.91;5043478;28;20092;-70
2021/08/22 03:37:50;;;;;;;9.45;4.00;;;;;;;11.59;79.21;100937.13;5042770;28;20026;-69
2021/08/22 03:40:15;;;;;;;9.57;3.85;;;;;;;11.62;79.18;100937.97;5043520;28;20095;-70
2021/08/22 03:42:41;;;;;;;10.60;3.88;;;;;;;11.62;79.25;100937.97;5043465;28;20541;-70
2021/08/22 03:45:07;;;;;;;6.57;4.28;;;;;;;11.63;79.03;100941.44;5043567;28;20035;-69
2021/08/22 03:47:32;;;;;;;7.53;4.32;;;;;;;11.68;79.08;100950.06;5043280;28;20037;-70
2021/08/22 03:49:57;;;;;;;7.07;4.32;;;;;;;11.67;79.03;100952.69;5042795;28;20021;-69
2021/08/22 03:52:23;;;;;;;7.13;4.28;;;;;;;11.63;78.87;100947.50;5042006;28;20033;-70
2021/08/22 03:54:48;;;;;;;10.32;3.97;;;;;;;11.61;78.72;100951.84;5043487;28;20044;-70
2021/08/22 03:57:13;;;;;;;9.68;5.10;;;;;;;11.59;78.89;100953.59;5042939;28;20041;-70
2021/08/22 03:59:39;;;;;;;7.07;4.22;;;;;;;11.56;79.08;100945.81;5043301;28;20021;-70
2021/08/22 04:02:05;;;;;;;8.43;4.00;;;;;;;11.56;79.14;100943.22;5043164;28;20025;-69
2021/08/22 04:04:31;;;;;;;8.50;4.32;;;;;;;11.60;79.29;100952.72;5043379;28;20032;-69
2021/08/22 04:06:56;;;;;;;8.85;4.50;;;;;;;11.63;79.14;100954.44;5043361;28;20021;-69
2021/08/22 04:09:24;;;;;;;9.45;4.18;;;;;;;11.64;79.41;100946.66;5042238;28;20045;-69
2021/08/22 04:11:54;;;;;;;9.20;4.22;;;;;;;11.70;79.27;100942.28;5043209;28;20024;-69
2021/08/22 04:14:20;;;;;;;10.85;5.10;;;;;;;11.74;79.27;100947.44;5042121;28;20033;-69
2021/08/22 04:16:45;;;;;;;7.15;4.45;;;;;;;11.72;79.30;100948.34;5043243;28;20032;-69
2021/08/22 04:19:10;;;;;;;12.13;4.90;;;;;;;11.76;79.14;100950.03;5043314;28;20206;-69
2021/08/22 04:21:36;;;;;;;11.35;5.07;;;;;;;11.76;79.05;100956.13;5043264;28;20052;-69
2021/08/22 04:24:03;;;;;;;11.27;5.28;;;;;;;11.76;78.88;100950.03;5043071;28;20040;-69
2021/08/22 04:26:28;;;;;;;8.45;4.85;;;;;;;11.82;78.98;100960.41;5043109;28;20029;-69
2021/08/22 04:28:53;;;;;;;7.07;3.83;;;;;;;11.97;79.30;100961.22;5043049;28;20029;-69
2021/08/22 04:31:19;;;;;;;7.05;3.38;;;;;;;12.23;79.96;100950.69;5042118;28;20081;-69
2021/08/22 04:33:44;;;;;;;6.47;2.88;;;;;;;12.71;80.83;100953.81;5043019;28;20022;-69
2021/08/22 04:36:09;;;;;;;8.18;3.17;;;;;;;13.20;81.07;100967.25;5043344;28;20044;-69
2021/08/22 04:38:35;;;;;;;4.50;2.83;;;;;;;13.77;81.29;100965.75;5045571;28;20013;-69
2021/08/22 04:41:01;;;;;;;4.88;2.88;;;;;;;14.28;80.20;100964.19;5045246;28;20033;-69
2021/08/22 04:43:26;;;;;;;6.55;2.80;;;;;;;14.89;79.83;100958.03;5046395;28;20032;-69
2021/08/22 04:45:52;;;;;;;4.63;2.92;;;;;;;15.38;78.92;100954.53;5046456;28;20504;-70
2021/08/22 04:48:17;;;;;;;6.30;3.08;;;;;;;15.93;77.42;100970.84;5046600;28;20030;-70
2021/08/22 04:50:42;;;;;;;4.10;2.35;;;;;;;16.41;75.77;100963.69;5046553;28;20485;-70
2021/08/22 04:53:08;;;;;;;4.13;2.63;;;;;;;16.85;74.21;100965.25;5045074;28;20100;-70
2021/08/22 04:55:33;;;;;;;5.43;2.45;;;;;;;17.36;72.12;100968.28;5046594;28;20052;-70
2021/08/22 04:57:58;;;;;;;6.65;2.85;;;;;;;17.80;70.25;100973.16;5046567;28;20029;-69
2021/08/22 05:00:24;;;;;;;5.22;2.25;;;;;;;18.11;67.89;100979.25;5046443;28;20025;-70
2021/08/22 05:02:49;;;;;;;6.30;2.78;;;;;;;18.54;66.48;100963.03;5046214;28;20025;-70
2021/08/22 05:05:14;;;;;;;5.65;2.35;;;;;;;19.12;64.95;100961.97;5046203;28;20136;-70
2021/08/22 05:07:40;;;;;;;5.97;2.70;;;;;;;19.55;63.18;100980.59;5046331;28;20080;-70
2021/08/22 05:10:06;;;;;;;4.95;2.05;;;;;;;19.92;61.14;100980.16;5046081;28;20041;-70
2021/08/22 05:12:32;;;;;;;5.90;2.55;;;;;;;20.20;59.21;100981.72;5045892;28;20025;-70
2021/08/22 05:14:57;;;;;;;5.45;2.25;;;;;;;20.40;57.88;100977.44;5046177;28;20028;-71
2021/08/22 05:17:22;;;;;;;5.97;2.53;;;;;;;20.70;56.27;100973.56;5046085;28;20366;-71
2021/08/22 05:19:48;;;;;;;5.72;2.35;;;;;;;20.92;55.17;100963.84;5046124;28;20025;-71
2021/08/22 05:22:13;;;;;;;8.23;2.30;;;;;;;21.21;54.30;100978.47;5044596;28;20033;-71
2021/08/22 05:24:38;;;;;;;5.97;2.50;;;;;;;21.48;53.70;100971.09;5046070;28;20034;-71
2021/08/22 05:27:04;;;;;;;4.18;1.98;;;;;;;21.82;52.37;100976.63;5045950;28;20116;-71
2021/08/22 05:29:29;;;;;;;3.20;2.00;;;;;;;22.08;51.56;100976.34;5044282;28;20028;-72
2021/08/22 05:31:55;;;;;;;3.95;2.10;;;;;;;22.38;50.88;100973.13;5045780;28;20108;-70
2021/08/22 05:34:20;;;;;;;4.63;1.90;;;;;;;22.56;49.98;100973.16;5044726;28;20036;-71
2021/08/22 05:36:45;;;;;;;7.95;2.00;;;;;;;22.80;48.83;100984.28;5045660;28;20056;-71
2021/08/22 05:39:11;;;;;;;4.00;1.88;;;;;;;23.19;48.12;100969.06;5045615;28;20048;-71
2021/08/22 05:41:36;;;;;;;3.05;1.83;;;;;;;23.34;46.68;100977.13;5045319;28;20056;-71
2021/08/22 05:44:02;;;;;;;4.25;2.03;;;;;;;23.25;46.83;100981.13;5045306;28;20063;-72
2021/08/22 05:46:28;;;;;;;3.42;1.80;;;;;;;23.41;46.71;100986.50;5045551;28;20025;-71
2021/08/22 05:48:53;;;;;;;3.33;1.75;;;;;;;23.53;45.57;100987.63;5045034;28;20033;-71
2021/08/22 05:51:20;;;;;;;4.60;2.08;;;;;;;23.64;45.42;100990.53;5045501;28;20330;-71
2021/08/22 05:53:46;;;;;;;3.30;1.67;;;;;;;23.98;44.70;100986.94;5045407;28;20067;-71
2021/08/22 05:56:12;;;;;;;4.15;1.83;;;;;;;24.09;44.14;100991.66;5043997;28;20440;-70
2021/08/22 05:58:37;;;;;;;3.55;2.05;;;;;;;24.11;43.47;100993.28;5045357;28;20025;-70
2021/08/22 06:01:04;;;;;;;4.45;1.90;;;;;;;24.05;43.96;100992.75;5045281;28;20026;-70
2021/08/22 06:03:29;;;;;;;4.13;2.03;;;;;;;24.26;43.35;100991.59;5045216;28;20026;-70
2021/08/22 06:05:54;;;;;;;3.95;1.75;;;;;;;24.38;42.97;101002.41;5045078;28;20045;-71
2021/08/22 06:08:20;;;;;;;4.70;1.95;;;;;;;24.62;42.48;100999.28;5044747;28;20049;-71
2021/08/22 06:10:45;;;;;;;4.25;1.60;;;;;;;24.80;42.13;100993.84;5045036;28;20112;-71
2021/08/22 06:13:11;;;;;;;3.70;1.67;;;;;;;24.99;41.80;100999.78;5044902;28;20030;-71
2021/08/22 06:15:36;;;;;;;4.68;1.63;;;;;;;25.30;41.25;101001.53;5043415;28;20033;-71
2021/08/22 06:18:02;;;;;;;3.05;1.63;;;;;;;25.35;40.79;101002.94;5045191;28;20081;-71
2021/08/22 06:20:27;;;;;;;3.80;1.70;;;;;;;25.32;40.43;101002.28;5043516;28;20022;-71
2021/08/22 06:22:53;;;;;;;4.78;1.60;;;;;;;25.32;40.63;101010.25;5043402;28;20029;-71
2021/08/22 06:25:18;;;;;;;4.10;1.63;;;;;;;25.18;40.10;101009.28;5044796;28;20024;-71
2021/08/22 06:27:44;;;;;;;3.17;1.48;;;;;;;25.26;40.40;101011.47;5044338;28;20033;-71
2021/08/22 06:30:09;;;;;;;2.33;1.50;;;;;;;25.00;40.57;101014.78;5044219;28;20598;-71
2021/08/22 06:32:35;;;;;;;2.90;1.63;;;;;;;24.94;39.99;101017.78;5043278;28;20397;-72
2021/08/22 06:35:00;;;;;;;5.50;1.80;;;;;;;24.70;40.17;101015.63;5044768;28;20028;-71
2021/08/22 06:37:25;;;;;;;5.28;1.92;;;;;;;24.68;40.71;101012.19;5044349;28;20470;-71
2021/08/22 06:39:51;;;;;;;4.60;2.05;;;;;;;24.90;40.31;101015.41;5044173;28;20025;-71
2021/08/22 06:42:16;;;;;;;3.97;1.60;;;;;;;24.96;40.65;101018.56;5044595;28;20026;-71
2021/08/22 06:44:42;;;;;;;4.85;1.83;;;;;;;25.24;39.85;101024.84;5044534;28;20390;-71
2021/08/22 06:47:10;;;;;;;4.22;1.70;;;;;;;25.17;39.87;101026.19;5043770;28;20036;-71
2021/08/22 06:49:36;;;;;;;3.15;1.58;;;;;;;25.25;39.83;101023.94;5042925;28;20474;-71
2021/08/22 06:52:01;;;;;;;5.43;1.80;;;;;;;25.35;39.42;101031.34;5044276;28;20048;-71
2021/08/22 06:54:26;;;;;;;4.00;1.50;;;;;;;25.20;39.24;101030.44;5044172;28;20081;-70
2021/08/22 06:56:55;;;;;;;2.63;1.80;;;;;;;25.03;40.05;101026.16;5042701;28;20056;-71
2021/08/22 06:59:24;;;;;;;5.50;2.10;;;;;;;25.22;40.08;101025.91;5043161;28;20014;-71
2021/08/22 07:01:50;;;;;;;2.72;1.70;;;;;;;25.65;39.03;101025.09;5043526;28;20026;-71
2021/08/22 07:04:15;;;;;;;3.45;1.85;;;;;;;25.65;38.76;101025.09;5043988;28;20256;-71
2021/08/22 07:06:40;;;;;;;3.30;1.65;;;;;;;25.75;38.75;101030.69;5043780;28;20091;-70
2021/08/22 07:09:06;;;;;;;2.08;1.30;;;;;;;25.81;38.37;101017.00;5043501;28;20080;-71
2021/08/22 07:11:32;;;;;;;6.18;1.67;;;;;;;25.95;37.71;101024.09;5042724;28;20151;-71
2021/08/22 07:13:58;;;;;;;4.22;1.80;;;;;;;25.83;37.87;101025.72;5043675;28;20029;-71
2021/08/22 07:16:25;;;;;;;3.33;1.90;;;;;;;25.68;38.00;101021.38;5043905;28;20025;-71
2021/08/22 07:18:50;;;;;;;3.33;1.80;;;;;;;25.50;37.85;101025.06;5043750;28;20077;-71
2021/08/22 07:21:15;;;;;;;4.63;1.70;;;;;;;25.17;38.28;101025.31;5043961;28;20022;-71
2021/08/22 07:23:42;;;;;;;4.13;1.60;;;;;;;24.96;38.79;101020.34;5043838;28;20218;-70
2021/08/22 07:26:08;;;;;;;7.53;1.83;;;;;;;24.98;38.86;101019.34;5043593;28;20585;-71
2021/08/22 07:28:33;;;;;;;4.43;1.60;;;;;;;25.09;38.61;101023.13;5043645;28;20071;-71
2021/08/22 07:31:04;;;;;;;5.50;1.80;;;;;;;24.91;38.71;101025.94;5043755;28;20024;-70
2021/08/22 07:33:29;;;;;;;5.50;1.50;;;;;;;24.75;39.88;101040.09;5043669;28;20028;-71
2021/08/22 07:35:55;;;;;;;2.92;1.60;;;;;;;25.03;39.29;101032.34;5043698;28;20021;-71
2021/08/22 07:38:20;;;;;;;3.25;1.42;;;;;;;25.08;38.73;101040.88;5043489;28;20108;-71
2021/08/22 07:40:46;;;;;;;4.85;1.80;;;;;;;25.01;38.71;101034.22;5043435;28;20025;-70
2021/08/22 07:43:12;;;;;;;5.05;2.00;;;;;;;24.98;39.11;101035.28;5043188;28;20025;-70
2021/08/22 07:45:37;;;;;;;4.47;2.45;;;;;;;25.13;38.79;101028.16;5043500;28;20025;-70
2021/08/22 07:48:03;;;;;;;4.63;1.58;;;;;;;25.52;38.62;101042.72;5043369;28;20028;-71
2021/08/22 07:50:29;;;;;;;4.57;1.77;;;;;;;25.73;38.18;101037.91;5043128;28;20026;-73
2021/08/22 07:52:54;;;;;;;6.40;2.05;;;;;;;26.17;37.51;101043.09;5043450;28;20111;-72
2021/08/22 07:55:19;;;;;;;3.92;1.73;;;;;;;26.03;36.43;101041.34;5043427;28;20071;-72
2021/08/22 07:57:45;;;;;;;5.38;1.80;;;;;;;25.97;37.28;101038.16;5043489;28;20025;-71
2021/08/22 08:00:11;;;;;;;3.17;1.20;;;;;;;26.24;36.92;101034.66;5042428;28;20025;-71
2021/08/22 08:02:36;;;;;;;5.13;1.63;;;;;;;26.48;36.52;101038.50;5043105;28;20053;-71
2021/08/22 08:05:01;;;;;;;5.60;2.08;;;;;;;26.28;36.38;101029.13;5043235;28;20026;-71
2021/08/22 08:07:27;;;;;;;4.05;1.50;;;;;;;26.10;36.62;101032.88;5042823;28;20485;-72
2021/08/22 08:09:52;;;;;;;3.90;1.50;;;;;;;26.27;37.35;101041.56;5043180;28;20052;-70
2021/08/22 08:12:17;;;;;;;5.07;1.60;;;;;;;26.27;36.06;101038.06;5043904;28;20033;-71
2021/08/22 08:14:43;;;;;;;4.10;1.63;;;;;;;26.31;36.95;101039.56;5046957;28;20025;-71
2021/08/22 08:17:08;;;;;;;3.10;1.48;;;;;;;26.72;35.78;101041.34;5047273;28;20507;-71
2021/08/22 08:19:34;;;;;;;3.08;1.60;;;;;;;26.83;34.90;101035.28;5047281;28;20014;-72
2021/08/22 08:21:59;;;;;;;2.85;1.65;;;;;;;26.32;35.73;101050.16;5047090;28;20067;-71
2021/08/22 08:24:25;;;;;;;4.13;1.98;;;;;;;26.29;36.66;101046.78;5046823;28;20081;-70
2021/08/22 08:26:50;;;;;;;3.88;1.40;;;;;;;26.56;36.48;101048.63;5046967;28;20017;-71
2021/08/22 08:29:15;;;;;;;5.57;1.73;;;;;;;26.77;35.17;101057.00;5046988;28;20030;-72
2021/08/22 08:31:41;;;;;;;3.55;1.55;;;;;;;26.61;35.03;101054.50;5046915;28;20081;-70
2021/08/22 08:34:06;;;;;;;5.40;1.80;;;;;;;26.57;35.25;101056.50;5046574;28;20029;-70
2021/08/22 08:36:32;;;;;;;3.67;1.58;;;;;;;26.20;34.81;101050.94;5046799;28;20028;-70
2021/08/22 08:38:57;;;;;;;3.78;1.30;;;;;;;25.58;34.97;101063.59;5046691;28;20033;-71
2021/08/22 08:41:22;;;;;;;4.82;1.60;;;;;;;24.80;36.31;101062.88;5046517;28;20025;-71
2021/08/22 08:43:48;;;;;;;4.07;1.83;;;;;;;24.64;36.71;101063.75;5046240;28;20037;-72
2021/08/22 08:46:14;;;;;;;4.32;1.52;;;;;;;24.87;36.60;101050.97;5045791;28;20024;-71
2021/08/22 08:48:41;;;;;;;7.38;2.63;;;;;;;24.96;36.11;101073.47;5046271;28;20081;-71
2021/08/22 08:51:25;;;;;;;3.40;1.40;;;;;;;24.53;36.81;101071.47;5046438;28;20036;-72
2021/08/22 08:53:57;;;;;;;5.47;2.08;;;;;;;24.14;37.29;101071.81;5044813;28;20029;-71
2021/08/22 08:56:27;;;;;;;4.28;1.73;;;;;;;24.56;37.27;101072.16;5046083;28;20361;-71
2021/08/22 08:58:52;;;;;;;4.88;1.65;;;;;;;25.20;36.34;101076.47;5046365;28;20112;-72
2021/08/22 09:01:18;;;;;;;3.38;1.55;;;;;;;25.47;35.38;101059.81;5046390;28;20088;-72
2021/08/22 09:04:18;;;;;;;3.97;1.80;;;;;;;25.67;35.14;101070.19;5046141;28;20088;-72
2021/08/22 09:06:57;;;;;;;2.90;1.52;;;;;;;25.55;35.26;101069.09;5045232;28;20041;-72
2021/08/22 09:09:59;;;;;;;4.53;1.50;;;;;;;25.78;34.47;101075.69;5045721;28;20030;-71
2021/08/22 09:12:34;;;;;;;4.53;1.50;;;;;;;25.76;34.19;101076.72;5044642;28;20038;-72
2021/08/22 09:15:44;;;;;;;6.53;1.58;;;;;;;25.90;34.45;101076.72;5046344;28;20049;-71
2021/08/22 09:18:35;;;;;;;4.40;1.63;;;;;;;26.64;33.02;101069.41;5045951;28;20029;-71
2021/08/22 09:21:38;;;;;;;2.70;1.47;;;;;;;26.48;33.10;101073.97;5046016;28;20021;-72
2021/08/22 09:24:18;;;;;;;4.40;1.52;;;;;;;26.71;32.82;101074.22;5044851;28;20033;-72
2021/08/22 09:27:09;;;;;;;3.60;1.65;;;;;;;26.63;32.37;101070.38;5045749;28;20029;-72
2021/08/22 09:30:12;;;;;;;3.13;1.60;;;;;;;26.90;32.90;101072.97;5044540;28;20088;-71
2021/08/22 09:33:12;;;;;;;5.10;2.13;;;;;;;27.90;30.69;101066.22;5045587;28;20085;-72
2021/08/22 09:35:59;;;;;;;4.05;1.60;;;;;;;27.31;30.57;101070.28;5045514;28;20461;-73
2021/08/22 09:38:42;;;;;;;2.63;1.27;;;;;;;26.73;32.07;101072.31;5044574;28;20018;-73
2021/08/22 09:41:26;;;;;;;1.98;1.23;;;;;;;26.93;32.02;101080.78;5044486;28;20096;-72
2021/08/22 09:44:43;;;;;;;5.15;1.52;;;;;;;27.62;31.82;101065.47;5045016;28;20025;-71
2021/08/22 09:47:11;;;;;;;2.80;1.13;;;;;;;28.69;30.48;101070.28;5045183;28;20033;-72
2021/08/22 09:50:14;;;;;;;2.90;1.40;;;;;;;29.10;29.51;101069.94;5045130;28;20052;-72
2021/08/22 09:53:11;;;;;;;2.53;1.50;;;;;;;28.29;29.36;101067.91;5045260;28;20022;-72
2021/08/22 09:56:19;;;;;;;3.28;1.38;;;;;;;26.46;31.24;101065.22;5045137;28;20045;-72
2021/08/22 09:59:09;;;;;;;2.15;1.45;;;;;;;24.71;34.20;101074.88;5043893;28;20017;-72
2021/08/22 10:02:12;;;;;;;2.78;1.42;;;;;;;24.13;35.27;101070.97;5045121;28;20029;-72
2021/08/22 10:05:00;;;;;;;4.68;1.63;;;;;;;24.16;35.51;101067.31;5045069;28;20022;-72
2021/08/22 10:07:34;;;;;;;5.55;1.90;;;;;;;24.34;35.86;101072.53;5045064;28;20024;-72
2021/08/22 10:10:33;;;;;;;5.05;1.52;;;;;;;25.06;34.42;101055.19;5043840;28;20049;-72
2021/08/22 10:12:59;;;;;;;4.38;1.88;;;;;;;24.78;34.58;101076.22;5033967;28;20080;-71
2021/08/22 10:15:24;;;;;;;6.28;1.50;;;;;;;24.00;35.14;101060.19;5044861;28;20529;-72
2021/08/22 10:17:50;;;;;;;3.55;1.70;;;;;;;23.89;35.99;101071.38;5044709;28;20025;-71
2021/08/22 10:20:17;;;;;;;5.20;2.10;;;;;;;23.69;36.09;101061.84;5044718;28;20084;-70
2021/08/22 10:22:43;;;;;;;7.43;1.55;;;;;;;23.40;36.34;101058.97;5044413;28;20049;-71
2021/08/22 10:25:13;;;;;;;4.68;1.63;;;;;;;23.69;36.97;101061.84;5043788;28;20029;-71
2021/08/22 10:27:44;;;;;;;4.18;1.70;;;;;;;23.78;36.77;101063.16;5044573;28;20025;-71
2021/08/22 10:30:10;;;;;;;3.67;1.60;;;;;;;23.65;36.72;101062.94;5044506;28;20021;-70
2021/08/22 10:32:58;;;;;;;3.55;1.80;;;;;;;23.25;37.12;101058.78;5044488;28;20037;-70
2021/08/22 10:35:25;;;;;;;5.20;2.05;;;;;;;23.10;38.25;101060.44;5043224;28;20561;-70
2021/08/22 10:37:50;;;;;;;3.05;1.50;;;;;;;23.37;37.72;101067.03;5044465;28;20029;-70
2021/08/22 10:40:25;;;;;;;3.47;1.92;;;;;;;24.32;36.40;101066.44;5044433;28;20025;-71
2021/08/22 10:43:10;;;;;;;3.50;1.60;;;;;;;25.27;34.87;101052.19;5044102;28;20025;-71
2021/08/22 10:45:50;;;;;;;3.47;1.50;;;;;;;26.07;33.33;101056.19;5044096;28;20025;-72
2021/08/22 10:48:21;;;;;;;3.55;1.60;;;;;;;26.44;32.71;101056.47;5044192;28;20025;-72
2021/08/22 10:51:10;;;;;;;3.80;1.58;;;;;;;26.44;32.30;101051.13;5042334;28;20355;-71
2021/08/22 10:53:40;;;;;;;5.70;1.80;;;;;;;25.89;33.44;101052.88;5038048;28;20033;-71
2021/08/22 10:56:21;;;;;;;3.10;1.23;;;;;;;25.59;33.59;101060.00;5043905;28;20026;-72
2021/08/22 10:58:55;;;;;;;3.35;1.55;;;;;;;24.79;34.38;101059.38;5044107;28;20024;-71
2021/08/22 11:01:22;;;;;;;4.15;1.60;;;;;;;24.71;34.18;101058.97;5043937;28;20017;-71
2021/08/22 11:04:01;;;;;;;3.10;1.27;;;;;;;25.28;34.38;101056.56;5043885;28;20037;-70
2021/08/22 11:06:26;;;;;;;3.47;1.50;;;;;;;25.61;32.46;101052.75;5043967;28;20051;-72
2021/08/22 11:08:52;;;;;;;4.60;2.00;;;;;;;25.09;33.43;101049.69;5043835;28;20057;-72
2021/08/22 11:11:17;;;;;;;3.30;1.77;;;;;;;24.21;34.40;101057.31;5043867;28;20026;-72
2021/08/22 11:13:55;;;;;;;2.92;1.38;;;;;;;23.42;35.58;101046.47;5043618;28;20032;-72
2021/08/22 11:16:36;;;;;;;2.75;1.67;;;;;;;22.89;36.90;101054.44;5043945;28;20045;-72
2021/08/22 11:19:04;;;;;;;3.95;1.75;;;;;;;22.60;37.64;101059.41;5044063;28;20104;-71
2021/08/22 11:21:29;;;;;;;3.92;1.70;;;;;;;23.73;37.50;101050.16;5043853;28;20100;-71
2021/08/22 11:23:59;;;;;;;2.88;1.33;;;;;;;25.66;35.33;101034.75;5043537;28;20500;-72
2021/08/22 11:26:24;;;;;;;4.35;1.70;;;;;;;26.48;33.38;101044.69;5043597;28;20049;-72
2021/08/22 11:28:57;;;;;;;2.60;1.75;;;;;;;26.94;32.47;101041.66;5043586;28;20033;-71
2021/08/22 11:31:26;;;;;;;4.97;1.48;;;;;;;26.60;32.83;101036.81;5043634;28;20021;-70
2021/08/22 11:33:52;;;;;;;3.90;1.60;;;;;;;26.28;32.63;101045.09;5042747;28;20093;-70